Independence, Kansas
Current Conditions -  °F | °C
As of 4:15 AM on Sunday 26 Oct 2014 (Local Time) from KIDP Reporting Station
Haze Haze  
Wind Chill: 61°   Ceiling: Unl
Heat Index: 61°   Visibility: 5mi
Dew Point: 59°   Wind: 6mph
Humidity: 94%   Direction: 170°S
Pressure: 29.94"   Gusts: NA
Location:  37.23°N, 95.71°W
Report Text: KIDP 260915Z AUTO 17005KT 5SM BR CLR 16/15 A2994 RMK AO2
Loading
Personal Weather Stations






























Interactive Weather Map New forecast layout! Learn more

10-Day Weather Forecast

Advertisements
Track Severe Weather on mobile